sensor_id;sensor_type;location;lat;lon;timestamp;P1;durP1;ratioP1;P2;durP2;ratioP2
74959;SDS011;63518;49.572;1.106;2022-12-10T00:04:50;10.80;;;4.13;;
74959;SDS011;63518;49.572;1.106;2022-12-10T00:07:21;10.77;;;3.78;;
74959;SDS011;63518;49.572;1.106;2022-12-10T00:10:09;9.15;;;3.92;;
74959;SDS011;63518;49.572;1.106;2022-12-10T00:12:57;10.02;;;3.88;;
74959;SDS011;63518;49.572;1.106;2022-12-10T00:15:26;9.70;;;4.75;;
74959;SDS011;63518;49.572;1.106;2022-12-10T00:18:01;10.07;;;4.88;;
74959;SDS011;63518;49.572;1.106;2022-12-10T00:20:35;9.63;;;4.25;;
74959;SDS011;63518;49.572;1.106;2022-12-10T00:23:19;8.65;;;3.42;;
74959;SDS011;63518;49.572;1.106;2022-12-10T00:25:53;5.88;;;2.78;;
74959;SDS011;63518;49.572;1.106;2022-12-10T00:31:16;5.80;;;2.42;;
74959;SDS011;63518;49.572;1.106;2022-12-10T00:33:45;7.18;;;2.78;;
74959;SDS011;63518;49.572;1.106;2022-12-10T00:36:15;8.90;;;2.60;;
74959;SDS011;63518;49.572;1.106;2022-12-10T00:38:55;5.43;;;2.30;;
74959;SDS011;63518;49.572;1.106;2022-12-10T00:41:24;5.90;;;2.75;;
74959;SDS011;63518;49.572;1.106;2022-12-10T00:43:57;8.07;;;2.78;;
74959;SDS011;63518;49.572;1.106;2022-12-10T00:46:33;5.00;;;2.05;;
74959;SDS011;63518;49.572;1.106;2022-12-10T00:49:04;4.78;;;1.67;;
74959;SDS011;63518;49.572;1.106;2022-12-10T00:51:37;4.70;;;1.60;;
74959;SDS011;63518;49.572;1.106;2022-12-10T00:54:07;5.00;;;2.13;;
74959;SDS011;63518;49.572;1.106;2022-12-10T00:56:34;8.10;;;2.92;;
74959;SDS011;63518;49.572;1.106;2022-12-10T00:59:07;11.75;;;3.92;;
74959;SDS011;63518;49.572;1.106;2022-12-10T01:01:42;12.18;;;4.10;;
74959;SDS011;63518;49.572;1.106;2022-12-10T01:04:18;8.60;;;4.05;;
74959;SDS011;63518;49.572;1.106;2022-12-10T01:06:50;8.50;;;3.70;;
74959;SDS011;63518;49.572;1.106;2022-12-10T01:09:47;6.45;;;2.55;;
74959;SDS011;63518;49.572;1.106;2022-12-10T01:12:17;6.57;;;3.45;;
74959;SDS011;63518;49.572;1.106;2022-12-10T01:14:53;5.53;;;2.33;;
74959;SDS011;63518;49.572;1.106;2022-12-10T01:17:23;5.68;;;1.90;;
74959;SDS011;63518;49.572;1.106;2022-12-10T01:19:57;5.28;;;2.67;;
74959;SDS011;63518;49.572;1.106;2022-12-10T01:22:27;5.63;;;2.17;;
74959;SDS011;63518;49.572;1.106;2022-12-10T01:25:09;8.00;;;3.55;;
74959;SDS011;63518;49.572;1.106;2022-12-10T01:27:38;14.85;;;6.40;;
74959;SDS011;63518;49.572;1.106;2022-12-10T01:30:20;11.60;;;5.25;;
74959;SDS011;63518;49.572;1.106;2022-12-10T01:32:49;11.05;;;4.25;;
74959;SDS011;63518;49.572;1.106;2022-12-10T01:35:26;13.82;;;4.93;;
74959;SDS011;63518;49.572;1.106;2022-12-10T01:38:06;8.70;;;3.60;;
74959;SDS011;63518;49.572;1.106;2022-12-10T01:40:36;9.98;;;3.75;;
74959;SDS011;63518;49.572;1.106;2022-12-10T01:43:10;12.23;;;5.35;;
74959;SDS011;63518;49.572;1.106;2022-12-10T01:45:48;6.22;;;3.33;;
74959;SDS011;63518;49.572;1.106;2022-12-10T01:48:35;8.55;;;3.20;;
74959;SDS011;63518;49.572;1.106;2022-12-10T01:51:02;7.65;;;3.78;;
74959;SDS011;63518;49.572;1.106;2022-12-10T01:53:40;7.68;;;3.40;;
74959;SDS011;63518;49.572;1.106;2022-12-10T01:56:11;3.95;;;1.77;;
74959;SDS011;63518;49.572;1.106;2022-12-10T01:58:43;7.05;;;3.22;;
74959;SDS011;63518;49.572;1.106;2022-12-10T02:07:08;6.88;;;2.65;;
74959;SDS011;63518;49.572;1.106;2022-12-10T02:12:36;3.70;;;1.67;;
74959;SDS011;63518;49.572;1.106;2022-12-10T02:15:25;6.30;;;2.28;;
74959;SDS011;63518;49.572;1.106;2022-12-10T02:21:53;9.13;;;3.90;;
74959;SDS011;63518;49.572;1.106;2022-12-10T02:24:33;7.40;;;3.58;;
74959;SDS011;63518;49.572;1.106;2022-12-10T02:27:16;11.63;;;4.53;;
74959;SDS011;63518;49.572;1.106;2022-12-10T02:29:51;6.63;;;3.10;;
74959;SDS011;63518;49.572;1.106;2022-12-10T02:32:26;9.40;;;3.20;;
74959;SDS011;63518;49.572;1.106;2022-12-10T02:35:07;6.75;;;3.33;;
74959;SDS011;63518;49.572;1.106;2022-12-10T02:38:03;8.85;;;3.17;;
74959;SDS011;63518;49.572;1.106;2022-12-10T02:40:41;6.05;;;2.50;;
74959;SDS011;63518;49.572;1.106;2022-12-10T02:43:23;4.75;;;2.30;;
74959;SDS011;63518;49.572;1.106;2022-12-10T03:22:21;2.92;;;1.33;;
74959;SDS011;63518;49.572;1.106;2022-12-10T03:24:57;4.85;;;2.03;;
74959;SDS011;63518;49.572;1.106;2022-12-10T03:27:33;4.28;;;2.17;;
74959;SDS011;63518;49.572;1.106;2022-12-10T03:30:06;5.32;;;1.63;;
74959;SDS011;63518;49.572;1.106;2022-12-10T03:32:35;6.05;;;2.20;;
74959;SDS011;63518;49.572;1.106;2022-12-10T03:35:12;6.22;;;3.03;;
74959;SDS011;63518;49.572;1.106;2022-12-10T03:37:46;10.75;;;3.88;;
74959;SDS011;63518;49.572;1.106;2022-12-10T03:40:20;22.75;;;7.40;;
74959;SDS011;63518;49.572;1.106;2022-12-10T03:42:49;8.07;;;2.63;;
74959;SDS011;63518;49.572;1.106;2022-12-10T03:45:19;9.90;;;3.50;;
74959;SDS011;63518;49.572;1.106;2022-12-10T03:47:55;7.70;;;3.83;;
74959;SDS011;63518;49.572;1.106;2022-12-10T03:50:23;8.25;;;3.50;;
74959;SDS011;63518;49.572;1.106;2022-12-10T03:52:58;8.52;;;4.35;;
74959;SDS011;63518;49.572;1.106;2022-12-10T03:55:31;11.93;;;4.47;;
74959;SDS011;63518;49.572;1.106;2022-12-10T03:58:31;7.15;;;4.25;;
74959;SDS011;63518;49.572;1.106;2022-12-10T04:00:58;7.32;;;2.65;;
74959;SDS011;63518;49.572;1.106;2022-12-10T04:03:47;6.38;;;3.20;;
74959;SDS011;63518;49.572;1.106;2022-12-10T04:06:19;5.97;;;2.45;;
74959;SDS011;63518;49.572;1.106;2022-12-10T04:09:03;9.27;;;3.75;;
74959;SDS011;63518;49.572;1.106;2022-12-10T04:11:34;5.15;;;2.15;;
74959;SDS011;63518;49.572;1.106;2022-12-10T04:14:12;9.55;;;3.15;;
74959;SDS011;63518;49.572;1.106;2022-12-10T04:19:38;4.53;;;1.95;;
74959;SDS011;63518;49.572;1.106;2022-12-10T04:22:06;4.40;;;2.40;;
74959;SDS011;63518;49.572;1.106;2022-12-10T04:24:53;7.05;;;3.33;;
74959;SDS011;63518;49.572;1.106;2022-12-10T04:27:50;7.57;;;2.33;;
74959;SDS011;63518;49.572;1.106;2022-12-10T04:33:07;4.50;;;1.77;;
74959;SDS011;63518;49.572;1.106;2022-12-10T04:35:37;9.98;;;3.22;;
74959;SDS011;63518;49.572;1.106;2022-12-10T04:38:13;7.20;;;2.75;;
74959;SDS011;63518;49.572;1.106;2022-12-10T04:40:40;5.20;;;2.30;;
74959;SDS011;63518;49.572;1.106;2022-12-10T04:43:25;6.00;;;2.97;;
74959;SDS011;63518;49.572;1.106;2022-12-10T04:45:55;10.70;;;3.67;;
74959;SDS011;63518;49.572;1.106;2022-12-10T04:48:35;8.45;;;2.67;;
74959;SDS011;63518;49.572;1.106;2022-12-10T04:51:13;10.02;;;1.95;;
74959;SDS011;63518;49.572;1.106;2022-12-10T04:53:45;6.57;;;2.75;;
74959;SDS011;63518;49.572;1.106;2022-12-10T04:56:23;6.72;;;3.22;;
74959;SDS011;63518;49.572;1.106;2022-12-10T04:59:17;7.90;;;2.97;;
74959;SDS011;63518;49.572;1.106;2022-12-10T05:01:48;8.85;;;3.28;;
74959;SDS011;63518;49.572;1.106;2022-12-10T05:04:33;8.68;;;4.20;;
74959;SDS011;63518;49.572;1.106;2022-12-10T05:07:05;13.13;;;3.83;;
74959;SDS011;63518;49.572;1.106;2022-12-10T05:10:03;8.40;;;4.03;;
74959;SDS011;63518;49.572;1.106;2022-12-10T05:12:44;5.50;;;2.35;;
74959;SDS011;63518;49.572;1.106;2022-12-10T05:15:13;3.20;;;1.38;;
74959;SDS011;63518;49.572;1.106;2022-12-10T05:17:52;6.53;;;3.00;;
74959;SDS011;63518;49.572;1.106;2022-12-10T05:20:24;5.47;;;1.85;;
74959;SDS011;63518;49.572;1.106;2022-12-10T05:22:52;3.05;;;1.25;;
74959;SDS011;63518;49.572;1.106;2022-12-10T05:25:38;1.27;;;0.70;;
74959;SDS011;63518;49.572;1.106;2022-12-10T05:28:39;2.15;;;0.85;;
74959;SDS011;63518;49.572;1.106;2022-12-10T05:31:22;3.40;;;1.33;;
74959;SDS011;63518;49.572;1.106;2022-12-10T05:34:04;1.60;;;0.82;;
74959;SDS011;63518;49.572;1.106;2022-12-10T05:36:36;2.28;;;1.40;;
74959;SDS011;63518;49.572;1.106;2022-12-10T05:39:12;5.00;;;1.48;;
74959;SDS011;63518;49.572;1.106;2022-12-10T05:41:42;7.80;;;2.85;;
74959;SDS011;63518;49.572;1.106;2022-12-10T05:44:29;7.35;;;3.17;;
74959;SDS011;63518;49.572;1.106;2022-12-10T05:47:02;5.78;;;2.50;;
74959;SDS011;63518;49.572;1.106;2022-12-10T05:49:45;5.90;;;2.80;;
74959;SDS011;63518;49.572;1.106;2022-12-10T05:52:21;4.05;;;2.22;;
74959;SDS011;63518;49.572;1.106;2022-12-10T05:54:53;3.58;;;1.75;;
74959;SDS011;63518;49.572;1.106;2022-12-10T05:57:22;3.60;;;1.88;;
74959;SDS011;63518;49.572;1.106;2022-12-10T05:59:51;6.88;;;2.50;;
74959;SDS011;63518;49.572;1.106;2022-12-10T06:02:21;2.95;;;1.10;;
74959;SDS011;63518;49.572;1.106;2022-12-10T06:04:51;7.10;;;2.95;;
74959;SDS011;63518;49.572;1.106;2022-12-10T06:07:22;6.45;;;2.20;;
74959;SDS011;63518;49.572;1.106;2022-12-10T06:09:50;4.18;;;2.10;;
74959;SDS011;63518;49.572;1.106;2022-12-10T06:12:17;6.63;;;2.90;;
74959;SDS011;63518;49.572;1.106;2022-12-10T06:15:02;8.80;;;3.55;;
74959;SDS011;63518;49.572;1.106;2022-12-10T06:17:36;10.77;;;3.58;;
74959;SDS011;63518;49.572;1.106;2022-12-10T06:20:26;7.10;;;3.50;;
74959;SDS011;63518;49.572;1.106;2022-12-10T06:22:55;6.20;;;2.20;;
74959;SDS011;63518;49.572;1.106;2022-12-10T06:25:24;8.93;;;4.28;;
74959;SDS011;63518;49.572;1.106;2022-12-10T06:27:56;7.35;;;3.55;;
74959;SDS011;63518;49.572;1.106;2022-12-10T06:30:24;5.53;;;2.60;;
74959;SDS011;63518;49.572;1.106;2022-12-10T06:32:54;5.28;;;2.13;;
74959;SDS011;63518;49.572;1.106;2022-12-10T06:35:22;4.03;;;2.05;;
74959;SDS011;63518;49.572;1.106;2022-12-10T06:37:57;9.20;;;3.70;;
74959;SDS011;63518;49.572;1.106;2022-12-10T06:40:34;9.32;;;3.95;;
74959;SDS011;63518;49.572;1.106;2022-12-10T06:43:28;5.40;;;2.53;;
74959;SDS011;63518;49.572;1.106;2022-12-10T06:45:58;13.88;;;5.80;;
74959;SDS011;63518;49.572;1.106;2022-12-10T06:48:43;2.92;;;1.30;;
74959;SDS011;63518;49.572;1.106;2022-12-10T06:51:13;8.30;;;4.07;;
74959;SDS011;63518;49.572;1.106;2022-12-10T06:53:42;5.63;;;3.08;;
74959;SDS011;63518;49.572;1.106;2022-12-10T06:56:21;9.27;;;4.05;;
74959;SDS011;63518;49.572;1.106;2022-12-10T06:59:10;2.83;;;1.23;;
74959;SDS011;63518;49.572;1.106;2022-12-10T07:01:48;3.92;;;1.60;;
74959;SDS011;63518;49.572;1.106;2022-12-10T07:04:16;4.45;;;2.40;;
74959;SDS011;63518;49.572;1.106;2022-12-10T07:06:43;4.72;;;2.33;;
74959;SDS011;63518;49.572;1.106;2022-12-10T07:09:13;5.28;;;1.90;;
74959;SDS011;63518;49.572;1.106;2022-12-10T07:11:40;7.28;;;2.95;;
74959;SDS011;63518;49.572;1.106;2022-12-10T07:14:15;2.88;;;1.10;;
74959;SDS011;63518;49.572;1.106;2022-12-10T07:16:43;2.88;;;1.42;;
74959;SDS011;63518;49.572;1.106;2022-12-10T07:19:11;3.10;;;1.45;;
74959;SDS011;63518;49.572;1.106;2022-12-10T07:21:41;4.72;;;1.85;;
74959;SDS011;63518;49.572;1.106;2022-12-10T07:24:15;2.72;;;0.93;;
74959;SDS011;63518;49.572;1.106;2022-12-10T07:26:47;4.65;;;2.30;;
74959;SDS011;63518;49.572;1.106;2022-12-10T07:29:21;5.90;;;2.10;;
74959;SDS011;63518;49.572;1.106;2022-12-10T07:31:54;8.93;;;3.00;;
74959;SDS011;63518;49.572;1.106;2022-12-10T07:34:22;8.45;;;2.35;;
74959;SDS011;63518;49.572;1.106;2022-12-10T07:36:56;3.80;;;1.08;;
74959;SDS011;63518;49.572;1.106;2022-12-10T07:39:28;1.73;;;1.00;;
74959;SDS011;63518;49.572;1.106;2022-12-10T07:41:59;0.57;;;0.32;;
74959;SDS011;63518;49.572;1.106;2022-12-10T07:44:26;2.08;;;0.95;;
74959;SDS011;63518;49.572;1.106;2022-12-10T07:46:53;4.38;;;1.48;;
74959;SDS011;63518;49.572;1.106;2022-12-10T07:49:35;5.88;;;1.67;;
74959;SDS011;63518;49.572;1.106;2022-12-10T07:57:04;0.98;;;0.40;;
74959;SDS011;63518;49.572;1.106;2022-12-10T07:59:55;3.78;;;1.52;;
74959;SDS011;63518;49.572;1.106;2022-12-10T08:02:29;6.28;;;2.47;;
74959;SDS011;63518;49.572;1.106;2022-12-10T08:04:58;7.57;;;3.20;;
74959;SDS011;63518;49.572;1.106;2022-12-10T08:07:32;4.53;;;2.47;;
74959;SDS011;63518;49.572;1.106;2022-12-10T08:10:25;9.25;;;3.75;;
74959;SDS011;63518;49.572;1.106;2022-12-10T08:13:16;7.72;;;2.72;;
74959;SDS011;63518;49.572;1.106;2022-12-10T08:15:54;8.98;;;3.13;;
74959;SDS011;63518;49.572;1.106;2022-12-10T08:18:38;8.02;;;3.45;;
74959;SDS011;63518;49.572;1.106;2022-12-10T08:21:09;3.28;;;2.00;;
74959;SDS011;63518;49.572;1.106;2022-12-10T08:23:43;3.58;;;2.38;;
74959;SDS011;63518;49.572;1.106;2022-12-10T08:26:15;5.70;;;2.20;;
74959;SDS011;63518;49.572;1.106;2022-12-10T08:28:54;5.50;;;1.95;;
74959;SDS011;63518;49.572;1.106;2022-12-10T08:31:38;3.63;;;1.75;;
74959;SDS011;63518;49.572;1.106;2022-12-10T08:34:15;1.10;;;0.52;;
74959;SDS011;63518;49.572;1.106;2022-12-10T08:36:54;1.70;;;1.08;;
74959;SDS011;63518;49.572;1.106;2022-12-10T08:39:33;1.00;;;0.43;;
74959;SDS011;63518;49.572;1.106;2022-12-10T08:42:08;1.20;;;0.52;;
74959;SDS011;63518;49.572;1.106;2022-12-10T08:44:45;5.88;;;2.47;;
74959;SDS011;63518;49.572;1.106;2022-12-10T08:47:28;6.18;;;2.95;;
74959;SDS011;63518;49.572;1.106;2022-12-10T08:50:28;3.22;;;1.95;;
74959;SDS011;63518;49.572;1.106;2022-12-10T08:54:03;2.50;;;1.77;;
74959;SDS011;63518;49.572;1.106;2022-12-10T08:56:51;4.65;;;1.33;;
74959;SDS011;63518;49.572;1.106;2022-12-10T09:00:47;1.13;;;0.60;;
74959;SDS011;63518;49.572;1.106;2022-12-10T09:03:39;14.07;;;4.93;;
74959;SDS011;63518;49.572;1.106;2022-12-10T09:06:15;7.72;;;3.53;;
74959;SDS011;63518;49.572;1.106;2022-12-10T09:09:12;9.90;;;4.25;;
74959;SDS011;63518;49.572;1.106;2022-12-10T09:12:08;2.08;;;0.93;;
74959;SDS011;63518;49.572;1.106;2022-12-10T09:15:19;11.55;;;3.40;;
74959;SDS011;63518;49.572;1.106;2022-12-10T09:18:04;4.32;;;2.13;;
74959;SDS011;63518;49.572;1.106;2022-12-10T09:20:46;6.22;;;3.00;;
74959;SDS011;63518;49.572;1.106;2022-12-10T09:23:42;7.45;;;3.15;;
74959;SDS011;63518;49.572;1.106;2022-12-10T09:26:20;11.82;;;4.78;;
74959;SDS011;63518;49.572;1.106;2022-12-10T09:28:50;9.85;;;3.88;;
74959;SDS011;63518;49.572;1.106;2022-12-10T09:31:34;6.22;;;2.88;;
74959;SDS011;63518;49.572;1.106;2022-12-10T09:34:16;8.25;;;3.88;;
74959;SDS011;63518;49.572;1.106;2022-12-10T09:37:04;5.18;;;2.00;;
74959;SDS011;63518;49.572;1.106;2022-12-10T09:40:36;6.90;;;3.33;;
74959;SDS011;63518;49.572;1.106;2022-12-10T09:43:52;2.67;;;1.23;;
74959;SDS011;63518;49.572;1.106;2022-12-10T09:47:02;1.05;;;0.60;;
74959;SDS011;63518;49.572;1.106;2022-12-10T09:52:59;11.35;;;3.63;;
74959;SDS011;63518;49.572;1.106;2022-12-10T09:56:27;4.25;;;1.33;;
74959;SDS011;63518;49.572;1.106;2022-12-10T09:59:31;7.30;;;3.00;;
74959;SDS011;63518;49.572;1.106;2022-12-10T10:02:33;5.10;;;2.28;;
74959;SDS011;63518;49.572;1.106;2022-12-10T10:05:29;12.40;;;5.60;;
74959;SDS011;63518;49.572;1.106;2022-12-10T10:12:04;12.43;;;5.13;;
74959;SDS011;63518;49.572;1.106;2022-12-10T10:15:49;14.93;;;6.53;;
74959;SDS011;63518;49.572;1.106;2022-12-10T10:19:15;15.93;;;6.88;;
74959;SDS011;63518;49.572;1.106;2022-12-10T10:22:01;37.35;;;10.32;;
74959;SDS011;63518;49.572;1.106;2022-12-10T10:25:02;11.43;;;4.50;;
74959;SDS011;63518;49.572;1.106;2022-12-10T10:28:47;12.68;;;5.18;;
74959;SDS011;63518;49.572;1.106;2022-12-10T10:31:46;9.40;;;3.80;;
74959;SDS011;63518;49.572;1.106;2022-12-10T10:34:39;12.38;;;4.18;;
74959;SDS011;63518;49.572;1.106;2022-12-10T10:37:40;8.85;;;3.78;;
74959;SDS011;63518;49.572;1.106;2022-12-10T10:41:17;15.63;;;5.05;;
74959;SDS011;63518;49.572;1.106;2022-12-10T10:47:37;8.82;;;4.07;;
74959;SDS011;63518;49.572;1.106;2022-12-10T10:50:23;0.73;;;0.35;;
74959;SDS011;63518;49.572;1.106;2022-12-10T10:56:42;9.35;;;4.55;;
74959;SDS011;63518;49.572;1.106;2022-12-10T10:59:53;13.35;;;3.60;;
74959;SDS011;63518;49.572;1.106;2022-12-10T11:02:41;3.15;;;2.22;;
74959;SDS011;63518;49.572;1.106;2022-12-10T11:08:13;16.35;;;5.18;;
74959;SDS011;63518;49.572;1.106;2022-12-10T11:11:06;8.68;;;3.80;;
74959;SDS011;63518;49.572;1.106;2022-12-10T11:17:23;3.53;;;1.83;;
74959;SDS011;63518;49.572;1.106;2022-12-10T11:23:20;10.88;;;3.58;;
74959;SDS011;63518;49.572;1.106;2022-12-10T11:29:05;5.32;;;2.47;;
74959;SDS011;63518;49.572;1.106;2022-12-10T11:38:38;2.30;;;1.00;;
74959;SDS011;63518;49.572;1.106;2022-12-10T11:45:10;6.90;;;1.63;;
74959;SDS011;63518;49.572;1.106;2022-12-10T11:48:55;24.33;;;7.22;;
74959;SDS011;63518;49.572;1.106;2022-12-10T11:58:23;8.98;;;4.75;;
74959;SDS011;63518;49.572;1.106;2022-12-10T12:14:27;18.42;;;7.15;;
74959;SDS011;63518;49.572;1.106;2022-12-10T12:23:54;15.70;;;8.20;;
74959;SDS011;63518;49.572;1.106;2022-12-10T12:26:39;8.63;;;4.47;;
74959;SDS011;63518;49.572;1.106;2022-12-10T12:29:45;16.52;;;6.30;;
74959;SDS011;63518;49.572;1.106;2022-12-10T12:32:29;4.90;;;2.22;;
74959;SDS011;63518;49.572;1.106;2022-12-10T12:35:58;13.70;;;6.40;;
74959;SDS011;63518;49.572;1.106;2022-12-10T12:48:26;15.00;;;6.40;;
74959;SDS011;63518;49.572;1.106;2022-12-10T12:51:16;18.30;;;8.05;;
74959;SDS011;63518;49.572;1.106;2022-12-10T12:54:25;13.57;;;5.93;;
74959;SDS011;63518;49.572;1.106;2022-12-10T12:57:02;22.83;;;9.60;;
74959;SDS011;63518;49.572;1.106;2022-12-10T13:03:21;7.15;;;3.13;;
74959;SDS011;63518;49.572;1.106;2022-12-10T13:05:53;16.33;;;6.78;;
74959;SDS011;63518;49.572;1.106;2022-12-10T13:08:46;17.67;;;7.95;;
74959;SDS011;63518;49.572;1.106;2022-12-10T13:11:33;19.15;;;8.02;;
74959;SDS011;63518;49.572;1.106;2022-12-10T13:14:33;19.52;;;6.75;;
74959;SDS011;63518;49.572;1.106;2022-12-10T13:17:32;20.25;;;6.75;;
74959;SDS011;63518;49.572;1.106;2022-12-10T13:23:29;14.48;;;7.20;;
74959;SDS011;63518;49.572;1.106;2022-12-10T13:26:34;16.55;;;6.78;;
74959;SDS011;63518;49.572;1.106;2022-12-10T13:37:54;16.17;;;7.05;;
74959;SDS011;63518;49.572;1.106;2022-12-10T13:44:45;13.25;;;5.80;;
74959;SDS011;63518;49.572;1.106;2022-12-10T13:52:29;13.10;;;6.45;;
74959;SDS011;63518;49.572;1.106;2022-12-10T13:55:49;13.82;;;6.03;;
74959;SDS011;63518;49.572;1.106;2022-12-10T14:02:04;11.60;;;5.30;;
74959;SDS011;63518;49.572;1.106;2022-12-10T14:05:14;12.88;;;5.47;;
74959;SDS011;63518;49.572;1.106;2022-12-10T14:08:13;13.20;;;5.65;;
74959;SDS011;63518;49.572;1.106;2022-12-10T14:10:53;10.65;;;4.97;;
74959;SDS011;63518;49.572;1.106;2022-12-10T14:13:38;18.48;;;6.25;;
74959;SDS011;63518;49.572;1.106;2022-12-10T14:16:12;17.60;;;6.40;;
74959;SDS011;63518;49.572;1.106;2022-12-10T14:19:02;20.73;;;7.95;;
74959;SDS011;63518;49.572;1.106;2022-12-10T14:21:41;18.58;;;8.68;;
74959;SDS011;63518;49.572;1.106;2022-12-10T14:27:15;14.95;;;6.05;;
74959;SDS011;63518;49.572;1.106;2022-12-10T14:33:24;17.17;;;8.00;;
74959;SDS011;63518;49.572;1.106;2022-12-10T14:40:29;15.88;;;6.07;;
74959;SDS011;63518;49.572;1.106;2022-12-10T14:43:50;12.40;;;5.53;;
74959;SDS011;63518;49.572;1.106;2022-12-10T14:46:41;12.25;;;5.88;;
74959;SDS011;63518;49.572;1.106;2022-12-10T14:50:12;13.02;;;6.78;;
74959;SDS011;63518;49.572;1.106;2022-12-10T14:53:24;12.05;;;5.97;;
74959;SDS011;63518;49.572;1.106;2022-12-10T14:58:52;15.50;;;5.65;;
74959;SDS011;63518;49.572;1.106;2022-12-10T15:02:02;13.38;;;6.93;;
74959;SDS011;63518;49.572;1.106;2022-12-10T15:04:46;12.88;;;5.57;;
74959;SDS011;63518;49.572;1.106;2022-12-10T15:07:26;12.63;;;6.00;;
74959;SDS011;63518;49.572;1.106;2022-12-10T15:10:07;16.20;;;6.90;;
74959;SDS011;63518;49.572;1.106;2022-12-10T15:12:53;14.55;;;6.38;;
74959;SDS011;63518;49.572;1.106;2022-12-10T15:19:50;11.85;;;4.85;;
74959;SDS011;63518;49.572;1.106;2022-12-10T15:22:21;13.57;;;6.05;;
74959;SDS011;63518;49.572;1.106;2022-12-10T15:25:40;11.93;;;4.85;;
74959;SDS011;63518;49.572;1.106;2022-12-10T15:28:46;12.35;;;6.43;;
74959;SDS011;63518;49.572;1.106;2022-12-10T15:31:57;11.45;;;5.82;;
74959;SDS011;63518;49.572;1.106;2022-12-10T15:34:57;11.68;;;5.65;;
74959;SDS011;63518;49.572;1.106;2022-12-10T15:37:46;11.30;;;4.63;;
74959;SDS011;63518;49.572;1.106;2022-12-10T15:40:29;11.85;;;5.57;;
74959;SDS011;63518;49.572;1.106;2022-12-10T15:43:30;10.85;;;5.22;;
74959;SDS011;63518;49.572;1.106;2022-12-10T15:49:09;4.55;;;1.60;;
74959;SDS011;63518;49.572;1.106;2022-12-10T15:52:02;10.85;;;3.30;;
74959;SDS011;63518;49.572;1.106;2022-12-10T15:54:36;14.18;;;6.07;;
74959;SDS011;63518;49.572;1.106;2022-12-10T15:57:24;13.68;;;5.72;;
74959;SDS011;63518;49.572;1.106;2022-12-10T16:03:21;16.25;;;6.07;;
74959;SDS011;63518;49.572;1.106;2022-12-10T16:05:56;11.88;;;6.15;;
74959;SDS011;63518;49.572;1.106;2022-12-10T16:08:34;8.82;;;4.13;;
74959;SDS011;63518;49.572;1.106;2022-12-10T16:18:23;11.80;;;5.10;;
74959;SDS011;63518;49.572;1.106;2022-12-10T16:21:04;9.50;;;4.15;;
74959;SDS011;63518;49.572;1.106;2022-12-10T16:23:40;5.55;;;3.30;;
74959;SDS011;63518;49.572;1.106;2022-12-10T16:28:54;6.07;;;3.65;;
74959;SDS011;63518;49.572;1.106;2022-12-10T16:31:21;3.78;;;1.42;;
74959;SDS011;63518;49.572;1.106;2022-12-10T16:34:14;5.40;;;2.15;;
74959;SDS011;63518;49.572;1.106;2022-12-10T16:36:44;3.08;;;1.70;;
74959;SDS011;63518;49.572;1.106;2022-12-10T16:39:28;6.20;;;3.20;;
74959;SDS011;63518;49.572;1.106;2022-12-10T16:42:19;9.25;;;4.20;;
74959;SDS011;63518;49.572;1.106;2022-12-10T16:45:28;8.20;;;3.22;;
74959;SDS011;63518;49.572;1.106;2022-12-10T16:48:39;3.83;;;1.67;;
74959;SDS011;63518;49.572;1.106;2022-12-10T16:51:14;8.85;;;1.75;;
74959;SDS011;63518;49.572;1.106;2022-12-10T16:54:11;3.25;;;1.70;;
74959;SDS011;63518;49.572;1.106;2022-12-10T16:56:42;2.45;;;1.20;;
74959;SDS011;63518;49.572;1.106;2022-12-10T16:59:17;2.63;;;1.08;;
74959;SDS011;63518;49.572;1.106;2022-12-10T17:01:48;4.75;;;2.47;;
74959;SDS011;63518;49.572;1.106;2022-12-10T17:04:21;3.90;;;1.75;;
74959;SDS011;63518;49.572;1.106;2022-12-10T17:06:50;5.82;;;2.80;;
74959;SDS011;63518;49.572;1.106;2022-12-10T17:09:20;3.30;;;1.48;;
74959;SDS011;63518;49.572;1.106;2022-12-10T17:11:56;1.60;;;0.68;;
74959;SDS011;63518;49.572;1.106;2022-12-10T17:14:31;4.78;;;2.03;;
74959;SDS011;63518;49.572;1.106;2022-12-10T17:17:18;3.78;;;1.92;;
74959;SDS011;63518;49.572;1.106;2022-12-10T17:19:55;6.63;;;3.42;;
74959;SDS011;63518;49.572;1.106;2022-12-10T17:22:25;1.50;;;0.95;;
74959;SDS011;63518;49.572;1.106;2022-12-10T17:24:55;4.88;;;2.00;;
74959;SDS011;63518;49.572;1.106;2022-12-10T17:27:27;8.80;;;4.55;;
74959;SDS011;63518;49.572;1.106;2022-12-10T17:30:09;9.60;;;3.85;;
74959;SDS011;63518;49.572;1.106;2022-12-10T17:32:52;4.43;;;1.60;;
74959;SDS011;63518;49.572;1.106;2022-12-10T17:35:24;3.45;;;1.48;;
74959;SDS011;63518;49.572;1.106;2022-12-10T17:38:33;0.80;;;0.47;;
74959;SDS011;63518;49.572;1.106;2022-12-10T17:41:00;3.47;;;1.58;;
74959;SDS011;63518;49.572;1.106;2022-12-10T17:43:54;3.92;;;1.67;;
74959;SDS011;63518;49.572;1.106;2022-12-10T17:46:38;4.53;;;2.05;;
74959;SDS011;63518;49.572;1.106;2022-12-10T17:49:17;4.63;;;2.30;;
74959;SDS011;63518;49.572;1.106;2022-12-10T17:51:55;3.15;;;1.27;;
74959;SDS011;63518;49.572;1.106;2022-12-10T17:54:38;4.45;;;1.75;;
74959;SDS011;63518;49.572;1.106;2022-12-10T17:57:17;10.10;;;4.25;;
74959;SDS011;63518;49.572;1.106;2022-12-10T18:00:00;4.28;;;2.15;;
74959;SDS011;63518;49.572;1.106;2022-12-10T18:02:48;1.73;;;0.88;;
74959;SDS011;63518;49.572;1.106;2022-12-10T18:05:19;4.57;;;2.30;;
74959;SDS011;63518;49.572;1.106;2022-12-10T18:07:58;3.92;;;1.40;;
74959;SDS011;63518;49.572;1.106;2022-12-10T18:10:30;5.47;;;2.53;;
74959;SDS011;63518;49.572;1.106;2022-12-10T18:13:34;1.90;;;0.93;;
74959;SDS011;63518;49.572;1.106;2022-12-10T18:16:19;4.88;;;2.67;;
74959;SDS011;63518;49.572;1.106;2022-12-10T18:19:18;5.82;;;0.98;;
74959;SDS011;63518;49.572;1.106;2022-12-10T18:21:57;3.08;;;1.17;;
74959;SDS011;63518;49.572;1.106;2022-12-10T18:24:33;8.68;;;3.67;;
74959;SDS011;63518;49.572;1.106;2022-12-10T18:27:23;5.63;;;2.60;;
74959;SDS011;63518;49.572;1.106;2022-12-10T18:30:26;9.27;;;3.55;;
74959;SDS011;63518;49.572;1.106;2022-12-10T18:34:00;2.90;;;1.25;;
74959;SDS011;63518;49.572;1.106;2022-12-10T18:36:44;3.42;;;1.75;;
74959;SDS011;63518;49.572;1.106;2022-12-10T18:39:44;9.88;;;3.67;;
74959;SDS011;63518;49.572;1.106;2022-12-10T18:42:17;10.73;;;3.58;;
74959;SDS011;63518;49.572;1.106;2022-12-10T18:44:56;6.13;;;2.72;;
74959;SDS011;63518;49.572;1.106;2022-12-10T18:47:38;2.97;;;1.33;;
74959;SDS011;63518;49.572;1.106;2022-12-10T18:50:25;1.70;;;0.70;;
74959;SDS011;63518;49.572;1.106;2022-12-10T18:53:22;12.77;;;5.00;;
74959;SDS011;63518;49.572;1.106;2022-12-10T18:58:36;8.90;;;3.88;;
74959;SDS011;63518;49.572;1.106;2022-12-10T19:01:03;2.55;;;1.08;;
74959;SDS011;63518;49.572;1.106;2022-12-10T19:03:42;5.05;;;2.40;;
74959;SDS011;63518;49.572;1.106;2022-12-10T19:06:15;4.60;;;1.63;;
74959;SDS011;63518;49.572;1.106;2022-12-10T19:08:57;2.10;;;1.35;;
74959;SDS011;63518;49.572;1.106;2022-12-10T19:11:44;4.45;;;2.22;;
74959;SDS011;63518;49.572;1.106;2022-12-10T19:14:20;2.88;;;1.40;;
74959;SDS011;63518;49.572;1.106;2022-12-10T19:16:51;6.55;;;3.00;;
74959;SDS011;63518;49.572;1.106;2022-12-10T19:19:18;10.23;;;3.40;;
74959;SDS011;63518;49.572;1.106;2022-12-10T19:21:47;2.10;;;1.25;;
74959;SDS011;63518;49.572;1.106;2022-12-10T19:24:15;6.88;;;6.20;;
74959;SDS011;63518;49.572;1.106;2022-12-10T19:26:48;4.15;;;2.28;;
74959;SDS011;63518;49.572;1.106;2022-12-10T19:29:19;10.57;;;4.28;;
74959;SDS011;63518;49.572;1.106;2022-12-10T19:31:51;8.55;;;3.85;;
74959;SDS011;63518;49.572;1.106;2022-12-10T19:34:19;10.32;;;3.90;;
74959;SDS011;63518;49.572;1.106;2022-12-10T19:36:49;13.07;;;5.38;;
74959;SDS011;63518;49.572;1.106;2022-12-10T19:39:33;6.65;;;2.88;;